Big Glory — H9IF — position and weather

sailwx.info

Track history (hours):
 
Tides and Currents Weather Stations Pressure Air Temp Water Temp Dewpoint Dewpoint Depression Visibility Wind Speed Wind Dir Waves Ship Positions

Big Glory

Last reported at 2014-Dec-22 15:18 UTC. Time now 2014-Dec-22 16:19 UTC.
Position N 29°46' E 122°04'.

Length 190 m; draft 6.6 m.

Type: Cargo ship. MMSI: 354285000.

Date/timePositionNaut miles runAvg speedWind from/ knotsBaromVisibWave heightAir tempDewpointWater temp
2014-Dec-22 15:18N 29°46' E 122°04'0 0.0
2014-Dec-22 11:30N 29°46' E 122°04'0 0.0
2014-Dec-22 10:24N 29°46' E 122°04'0 0.0
2014-Dec-22 06:18N 29°46' E 122°04'0 0.0
2014-Dec-22 04:24N 29°46' E 122°04'0 0.0
2014-Dec-22 03:30N 29°46' E 122°04'0 0.0
2014-Dec-22 01:24N 29°46' E 122°04'0 0.0
2014-Dec-21 22:30N 29°46' E 122°04'0 0.0
2014-Dec-21 21:12N 29°46' E 122°04'0 0.0
2014-Dec-21 20:18N 29°46' E 122°04'0 0.0
2014-Dec-21 19:30N 29°46' E 122°04'0 0.0
2014-Dec-21 18:12N 29°46' E 122°04'0 0.0
2014-Dec-21 17:06N 29°46' E 122°04'0 0.0
2014-Dec-21 15:12N 29°46' E 122°04'0 0.0
2014-Dec-21 11:12N 29°46' E 122°04'0 0.0
2014-Dec-21 09:06N 29°46' E 122°04'0 0.0
2014-Dec-21 04:18N 29°46' E 122°04'0 0.0
2014-Dec-21 02:24N 29°46' E 122°04'0 0.0
2014-Dec-21 00:24N 29°46' E 122°04'0 0.0
2014-Dec-20 23:24N 29°46' E 122°04'0 0.0
2014-Dec-20 22:18N 29°46' E 122°04'0 0.0
2014-Dec-20 21:12N 29°46' E 122°04'0 0.0
2014-Dec-20 18:06N 29°46' E 122°04'0 0.0
2014-Dec-20 10:18N 29°46' E 122°04'0 0.0
2014-Dec-20 08:30N 29°46' E 122°04'0 0.0
2014-Dec-20 06:30N 29°46' E 122°04'0 0.0
2014-Dec-20 05:18N 29°46' E 122°04'0 0.0
2014-Dec-20 02:12N 29°46' E 122°04'0 0.0
2014-Dec-20 01:12N 29°46' E 122°04'0 0.0
2014-Dec-19 19:30N 29°46' E 122°04'0 0.0
2014-Dec-19 18:24N 29°46' E 122°04'0 0.0
2014-Dec-19 17:24N 29°46' E 122°04'0 0.0
2014-Dec-19 16:24N 29°46' E 122°04'0 0.0
2014-Dec-19 12:18N 29°46' E 122°04'0 0.0
2014-Dec-19 07:06N 29°46' E 122°04'0 0.0
2014-Dec-19 06:12N 29°46' E 122°04'0 0.0
2014-Dec-18 23:24N 29°46' E 122°04'0 0.0
2014-Dec-18 22:24N 29°46' E 122°04'0 0.0
2014-Dec-18 21:18N 29°46' E 122°04'0 0.0
2014-Dec-18 10:12N 29°46' E 122°04'0 0.0
2014-Dec-18 08:06N 29°46' E 122°04'0 0.0
2014-Dec-18 02:30N 29°46' E 122°04'0 0.0
2014-Dec-17 22:12N 29°46' E 122°04'0 0.0
2014-Dec-17 21:06N 29°46' E 122°04'0 0.0
2014-Dec-17 18:24N 29°46' E 122°04'0 0.0
2014-Dec-17 17:30N 29°46' E 122°04'0 0.0
2014-Dec-17 15:24N 29°46' E 122°04'0 0.0
2014-Dec-17 14:12N 29°46' E 122°04'0 0.0
2014-Dec-17 11:24N 29°46' E 122°04'0 0.0
2014-Dec-17 05:24N 29°46' E 122°04'0 0.0
2014-Dec-17 04:30N 29°46' E 122°04'0 0.0
2014-Dec-17 01:24N 29°46' E 122°04'0 0.0
2014-Dec-16 17:12N 29°46' E 122°04'0 0.0
2014-Dec-16 15:24N 29°46' E 122°04'0 0.0
2014-Dec-16 07:06N 29°46' E 122°04'0 0.0
2014-Dec-16 06:24N 29°46' E 122°04'0 0.0
2014-Dec-15 21:30N 29°46' E 122°04'0 0.0
2014-Dec-15 20:24N 29°46' E 122°04'0 0.0
2014-Dec-15 19:12N 29°46' E 122°04'0 0.1
2014-Dec-15 17:33N 29°47' E 122°04'2 1.2
2014-Dec-15 16:20N 29°48' E 122°03'0 0.0
2014-Dec-15 14:33N 29°48' E 122°03'2 1.5
2014-Dec-15 13:31N 29°47' E 122°04'0 0.0
2014-Dec-15 11:03N 29°47' E 122°04'0 0.0
2014-Dec-15 03:15N 29°47' E 122°04'0 0.0
2014-Dec-15 02:33N 29°47' E 122°04'0 0.0
2014-Dec-15 01:09N 29°47' E 122°04'0 0.0
2014-Dec-15 00:21N 29°47' E 122°04'0 0.0
2014-Dec-14 23:22N 29°47' E 122°04'0 0.0
2014-Dec-14 22:34N 29°47' E 122°04'0 0.0
2014-Dec-14 21:33N 29°47' E 122°04'0 0.0
2014-Dec-14 19:33N 29°47' E 122°04'0 0.0
2014-Dec-14 11:28N 29°47' E 122°04'0 0.4
2014-Dec-14 10:33N 29°47' E 122°04'4 4.0
2014-Dec-14 09:33N 29°49' E 122°08'7 7.2
2014-Dec-14 08:33N 29°54' E 122°14'0 0.1
2014-Dec-14 07:33N 29°54' E 122°14'0 0.0
2014-Dec-14 06:33N 29°54' E 122°14'4 3.7
2014-Dec-14 05:33N 29°50' E 122°13'1110.7
2014-Dec-14 04:33N 29°45' E 122°23'9 9.2
2014-Dec-14 03:33N 29°38' E 122°30'1512.2
2014-Dec-14 02:21N 29°23' E 122°33'1011.9
2014-Dec-14 01:31N 29°14' E 122°35'  
Track history (hours):
 
Tides and Currents Weather Stations Pressure Air Temp Water Temp Dewpoint Dewpoint Depression Visibility Wind Speed Wind Dir Waves Ship Positions

Big Glory

Last reported at 2014-Dec-22 15:18 UTC. Time now 2014-Dec-22 16:19 UTC.
Position N 29°46' E 122°04'.

Length 190 m; draft 6.6 m.

Type: Cargo ship. MMSI: 354285000.

Date/timePositionNaut miles runAvg speedWind from/ knotsBaromVisibWave heightAir tempDewpointWater temp
2014-Dec-22 15:18N 29°46' E 122°04'0 0.0
2014-Dec-22 11:30N 29°46' E 122°04'0 0.0
2014-Dec-22 10:24N 29°46' E 122°04'0 0.0
2014-Dec-22 06:18N 29°46' E 122°04'0 0.0
2014-Dec-22 04:24N 29°46' E 122°04'0 0.0
2014-Dec-22 03:30N 29°46' E 122°04'0 0.0
2014-Dec-22 01:24N 29°46' E 122°04'0 0.0
2014-Dec-21 22:30N 29°46' E 122°04'0 0.0
2014-Dec-21 21:12N 29°46' E 122°04'0 0.0
2014-Dec-21 20:18N 29°46' E 122°04'0 0.0
2014-Dec-21 19:30N 29°46' E 122°04'0 0.0
2014-Dec-21 18:12N 29°46' E 122°04'0 0.0
2014-Dec-21 17:06N 29°46' E 122°04'0 0.0
2014-Dec-21 15:12N 29°46' E 122°04'0 0.0
2014-Dec-21 11:12N 29°46' E 122°04'0 0.0
2014-Dec-21 09:06N 29°46' E 122°04'0 0.0
2014-Dec-21 04:18N 29°46' E 122°04'0 0.0
2014-Dec-21 02:24N 29°46' E 122°04'0 0.0
2014-Dec-21 00:24N 29°46' E 122°04'0 0.0
2014-Dec-20 23:24N 29°46' E 122°04'0 0.0
2014-Dec-20 22:18N 29°46' E 122°04'0 0.0
2014-Dec-20 21:12N 29°46' E 122°04'0 0.0
2014-Dec-20 18:06N 29°46' E 122°04'0 0.0
2014-Dec-20 10:18N 29°46' E 122°04'0 0.0
2014-Dec-20 08:30N 29°46' E 122°04'0 0.0
2014-Dec-20 06:30N 29°46' E 122°04'0 0.0
2014-Dec-20 05:18N 29°46' E 122°04'0 0.0
2014-Dec-20 02:12N 29°46' E 122°04'0 0.0
2014-Dec-20 01:12N 29°46' E 122°04'0 0.0
2014-Dec-19 19:30N 29°46' E 122°04'0 0.0
2014-Dec-19 18:24N 29°46' E 122°04'0 0.0
2014-Dec-19 17:24N 29°46' E 122°04'0 0.0
2014-Dec-19 16:24N 29°46' E 122°04'0 0.0
2014-Dec-19 12:18N 29°46' E 122°04'0 0.0
2014-Dec-19 07:06N 29°46' E 122°04'0 0.0
2014-Dec-19 06:12N 29°46' E 122°04'0 0.0
2014-Dec-18 23:24N 29°46' E 122°04'0 0.0
2014-Dec-18 22:24N 29°46' E 122°04'0 0.0
2014-Dec-18 21:18N 29°46' E 122°04'0 0.0
2014-Dec-18 10:12N 29°46' E 122°04'0 0.0
2014-Dec-18 08:06N 29°46' E 122°04'0 0.0
2014-Dec-18 02:30N 29°46' E 122°04'0 0.0
2014-Dec-17 22:12N 29°46' E 122°04'0 0.0
2014-Dec-17 21:06N 29°46' E 122°04'0 0.0
2014-Dec-17 18:24N 29°46' E 122°04'0 0.0
2014-Dec-17 17:30N 29°46' E 122°04'0 0.0
2014-Dec-17 15:24N 29°46' E 122°04'0 0.0
2014-Dec-17 14:12N 29°46' E 122°04'0 0.0
2014-Dec-17 11:24N 29°46' E 122°04'0 0.0
2014-Dec-17 05:24N 29°46' E 122°04'0 0.0
2014-Dec-17 04:30N 29°46' E 122°04'0 0.0
2014-Dec-17 01:24N 29°46' E 122°04'0 0.0
2014-Dec-16 17:12N 29°46' E 122°04'0 0.0
2014-Dec-16 15:24N 29°46' E 122°04'0 0.0
2014-Dec-16 07:06N 29°46' E 122°04'0 0.0
2014-Dec-16 06:24N 29°46' E 122°04'0 0.0
2014-Dec-15 21:30N 29°46' E 122°04'0 0.0
2014-Dec-15 20:24N 29°46' E 122°04'0 0.0
2014-Dec-15 19:12N 29°46' E 122°04'0 0.1
2014-Dec-15 17:33N 29°47' E 122°04'2 1.2
2014-Dec-15 16:20N 29°48' E 122°03'0 0.0
2014-Dec-15 14:33N 29°48' E 122°03'2 1.5
2014-Dec-15 13:31N 29°47' E 122°04'0 0.0
2014-Dec-15 11:03N 29°47' E 122°04'0 0.0
2014-Dec-15 03:15N 29°47' E 122°04'0 0.0
2014-Dec-15 02:33N 29°47' E 122°04'0 0.0
2014-Dec-15 01:09N 29°47' E 122°04'0 0.0
2014-Dec-15 00:21N 29°47' E 122°04'0 0.0
2014-Dec-14 23:22N 29°47' E 122°04'0 0.0
2014-Dec-14 22:34N 29°47' E 122°04'0 0.0
2014-Dec-14 21:33N 29°47' E 122°04'0 0.0
2014-Dec-14 19:33N 29°47' E 122°04'0 0.0
2014-Dec-14 11:28N 29°47' E 122°04'0 0.4
2014-Dec-14 10:33N 29°47' E 122°04'4 4.0
2014-Dec-14 09:33N 29°49' E 122°08'7 7.2
2014-Dec-14 08:33N 29°54' E 122°14'0 0.1
2014-Dec-14 07:33N 29°54' E 122°14'0 0.0
2014-Dec-14 06:33N 29°54' E 122°14'4 3.7
2014-Dec-14 05:33N 29°50' E 122°13'1110.7
2014-Dec-14 04:33N 29°45' E 122°23'9 9.2
2014-Dec-14 03:33N 29°38' E 122°30'1512.2
2014-Dec-14 02:21N 29°23' E 122°33'1011.9
2014-Dec-14 01:31N 29°14' E 122°35'  

Dump ship's entire track history